createdAt,value
2023-05-23T00:01:17.598Z,15.20
2023-05-23T00:03:45.799Z,14.27
2023-05-23T00:06:15.271Z,18.13
2023-05-23T00:08:43.375Z,17.90
2023-05-23T00:11:11.461Z,21.43
2023-05-23T00:13:40.310Z,21.03
2023-05-23T00:16:09.762Z,17.00
2023-05-23T00:18:43.457Z,16.50
2023-05-23T00:21:11.449Z,14.60
2023-05-23T00:23:42.281Z,17.43
2023-05-23T00:26:11.059Z,16.27
2023-05-23T00:28:39.441Z,17.23
2023-05-23T00:31:07.721Z,17.77
2023-05-23T00:33:36.886Z,17.60
2023-05-23T00:36:06.803Z,16.73
2023-05-23T00:38:34.699Z,17.23
2023-05-23T00:41:03.642Z,13.93
2023-05-23T00:43:32.597Z,13.00
2023-05-23T00:46:01.958Z,14.70
2023-05-23T00:48:31.277Z,13.20
2023-05-23T00:50:59.694Z,14.73
2023-05-23T00:53:29.674Z,13.10
2023-05-23T00:55:58.132Z,17.10
2023-05-23T00:58:26.434Z,14.50
2023-05-23T01:00:56.226Z,15.83
2023-05-23T01:03:28.652Z,20.23
2023-05-23T01:05:57.664Z,14.47
2023-05-23T01:08:25.616Z,12.20
2023-05-23T01:10:55.147Z,23.23
2023-05-23T01:13:33.388Z,11.43
2023-05-23T01:16:07.527Z,12.50
2023-05-23T01:18:42.628Z,13.23
2023-05-23T01:21:14.146Z,12.47
2023-05-23T01:24:05.494Z,14.07
2023-05-23T01:26:48.267Z,17.13
2023-05-23T01:29:33.781Z,13.60
2023-05-23T01:32:04.859Z,12.37
2023-05-23T01:34:34.944Z,13.10
2023-05-23T01:37:03.065Z,14.33
2023-05-23T01:39:31.172Z,12.93
2023-05-23T01:41:59.620Z,12.40
2023-05-23T01:44:29.284Z,12.70
2023-05-23T01:46:58.833Z,15.60
2023-05-23T01:49:28.030Z,14.00
2023-05-23T01:51:56.486Z,15.07
2023-05-23T01:54:25.263Z,14.60
2023-05-23T01:56:53.543Z,12.03
2023-05-23T01:59:21.923Z,15.77
2023-05-23T02:01:51.960Z,12.33
2023-05-23T02:04:20.035Z,12.03
2023-05-23T02:06:47.902Z,12.13
2023-05-23T02:09:17.082Z,12.77
2023-05-23T02:11:45.074Z,12.17
2023-05-23T02:14:13.751Z,12.37
2023-05-23T02:16:42.153Z,11.67
2023-05-23T02:19:11.364Z,13.67
2023-05-23T02:21:39.648Z,11.90
2023-05-23T02:24:08.113Z,14.67
2023-05-23T02:26:36.206Z,13.30
2023-05-23T02:29:04.344Z,11.83
2023-05-23T02:31:32.733Z,12.20
2023-05-23T02:34:00.592Z,13.73
2023-05-23T02:36:29.988Z,13.33
2023-05-23T02:38:59.031Z,14.00
2023-05-23T02:41:27.144Z,13.43
2023-05-23T02:43:55.062Z,13.60
2023-05-23T02:46:23.699Z,15.43
2023-05-23T02:48:51.754Z,11.53
2023-05-23T02:51:19.762Z,14.10
2023-05-23T02:53:49.474Z,14.43
2023-05-23T02:56:19.043Z,13.60
2023-05-23T02:58:47.137Z,13.17
2023-05-23T03:01:15.405Z,13.40
2023-05-23T03:03:43.545Z,13.80
2023-05-23T03:06:14.726Z,12.83
2023-05-23T03:08:43.705Z,13.00
2023-05-23T03:11:12.993Z,11.17
2023-05-23T03:13:41.001Z,12.87
2023-05-23T03:16:09.407Z,12.73
2023-05-23T03:18:37.341Z,14.30
2023-05-23T03:21:05.765Z,15.80
2023-05-23T03:23:34.040Z,16.73
2023-05-23T03:26:02.039Z,18.23
2023-05-23T03:28:32.279Z,15.70
2023-05-23T03:31:00.867Z,13.23
2023-05-23T03:33:28.989Z,19.83
2023-05-23T03:35:57.701Z,17.50
2023-05-23T03:38:26.594Z,20.87
2023-05-23T03:40:54.550Z,12.37
2023-05-23T03:43:22.570Z,14.43
2023-05-23T03:45:52.447Z,14.13
2023-05-23T03:48:20.769Z,15.23
2023-05-23T03:50:48.884Z,18.17
2023-05-23T03:53:17.304Z,23.97
2023-05-23T03:55:45.552Z,21.30
2023-05-23T03:58:14.318Z,15.37
2023-05-23T04:00:43.183Z,22.53
2023-05-23T04:03:14.700Z,17.70
2023-05-23T04:05:43.944Z,14.50
2023-05-23T04:08:12.249Z,14.60
2023-05-23T04:10:40.573Z,16.83
2023-05-23T04:13:10.329Z,20.00
2023-05-23T04:15:39.773Z,19.63
2023-05-23T04:18:09.366Z,15.47
2023-05-23T04:20:39.636Z,16.20
2023-05-23T04:23:08.220Z,13.73
2023-05-23T04:25:36.831Z,16.83
2023-05-23T04:28:06.072Z,20.30
2023-05-23T04:30:35.064Z,17.73
2023-05-23T04:33:03.945Z,21.53
2023-05-23T04:35:34.758Z,15.80
2023-05-23T04:38:04.277Z,16.40
2023-05-23T04:40:32.936Z,14.70
2023-05-23T04:43:01.161Z,13.60
2023-05-23T04:45:29.827Z,15.50
2023-05-23T04:47:58.594Z,18.27
2023-05-23T04:50:28.741Z,15.73
2023-05-23T04:52:57.374Z,16.50
2023-05-23T04:55:27.030Z,14.20
2023-05-23T04:57:56.418Z,13.40
2023-05-23T05:00:25.395Z,13.07
2023-05-23T05:02:53.987Z,16.70
2023-05-23T05:05:22.436Z,16.03
2023-05-23T05:07:51.391Z,17.83
2023-05-23T05:10:19.807Z,19.87
2023-05-23T05:12:50.656Z,16.03
2023-05-23T05:15:21.530Z,18.07
2023-05-23T05:17:50.189Z,13.43
2023-05-23T05:20:18.671Z,15.50
2023-05-23T05:22:48.598Z,14.43
2023-05-23T05:25:16.961Z,15.90
2023-05-23T05:27:46.186Z,14.90
2023-05-23T05:30:17.229Z,15.80
2023-05-23T05:32:46.412Z,13.03
2023-05-23T05:35:15.471Z,13.30
2023-05-23T05:37:44.524Z,12.60
2023-05-23T05:40:13.639Z,11.10
2023-05-23T05:42:42.225Z,14.87
2023-05-23T05:45:12.135Z,12.00
2023-05-23T05:47:42.295Z,15.00
2023-05-23T05:50:11.734Z,13.83
2023-05-23T05:52:40.630Z,16.17
2023-05-23T05:55:12.100Z,10.80
2023-05-23T05:57:41.356Z,14.97
2023-05-23T06:00:13.766Z,16.27
2023-05-23T06:02:48.006Z,14.80
2023-05-23T06:05:17.370Z,20.10
2023-05-23T06:07:45.748Z,12.00
2023-05-23T06:10:14.939Z,12.80
2023-05-23T06:12:43.454Z,13.50
2023-05-23T06:15:13.709Z,13.17
2023-05-23T06:17:45.468Z,14.27
2023-05-23T06:20:14.331Z,10.80
2023-05-23T06:22:42.994Z,11.30
2023-05-23T06:25:12.703Z,14.60
2023-05-23T06:27:41.565Z,17.60
2023-05-23T06:30:11.275Z,10.60
2023-05-23T06:32:40.972Z,10.10
2023-05-23T06:35:11.426Z,13.60
2023-05-23T06:37:44.163Z,10.63
2023-05-23T06:40:14.821Z,13.83
2023-05-23T06:42:43.231Z,10.47
2023-05-23T06:45:15.758Z,11.43
2023-05-23T06:47:45.795Z,15.13
2023-05-23T06:50:20.434Z,10.77
2023-05-23T06:52:50.092Z,14.53
2023-05-23T06:55:19.722Z,12.33
2023-05-23T06:57:51.215Z,11.60
2023-05-23T07:00:20.251Z,13.10
2023-05-23T07:02:50.170Z,14.10
2023-05-23T07:05:20.660Z,10.63
2023-05-23T07:07:49.628Z,13.17
2023-05-23T07:10:17.921Z,13.70
2023-05-23T07:12:47.131Z,15.00
2023-05-23T07:15:16.556Z,10.90
2023-05-23T07:17:45.978Z,18.03
2023-05-23T07:20:15.437Z,14.97
2023-05-23T07:22:45.774Z,12.77
2023-05-23T07:25:14.564Z,14.90
2023-05-23T07:27:43.653Z,13.37
2023-05-23T07:30:12.767Z,15.70
2023-05-23T07:32:41.715Z,18.70
2023-05-23T07:35:11.355Z,14.60
2023-05-23T07:37:40.011Z,14.03
2023-05-23T07:40:11.187Z,17.10
2023-05-23T07:42:39.907Z,15.90
2023-05-23T07:45:09.570Z,17.57
2023-05-23T07:47:38.744Z,18.00
2023-05-23T07:50:08.413Z,17.70
2023-05-23T07:52:37.382Z,14.63
2023-05-23T07:55:08.182Z,19.03
2023-05-23T07:57:38.262Z,20.03
2023-05-23T08:00:07.887Z,16.03
2023-05-23T08:02:39.320Z,15.50
2023-05-23T08:05:08.899Z,16.33
2023-05-23T08:07:37.823Z,16.27
2023-05-23T08:10:08.058Z,17.93
2023-05-23T08:12:38.285Z,12.83
2023-05-23T08:15:08.838Z,15.00
2023-05-23T08:17:38.224Z,16.60
2023-05-23T08:20:10.640Z,14.60
2023-05-23T08:22:39.750Z,13.83
2023-05-23T08:25:08.962Z,13.73
2023-05-23T08:27:39.688Z,10.90
2023-05-23T08:30:10.101Z,13.37
2023-05-23T08:32:38.873Z,14.27
2023-05-23T08:35:09.417Z,13.10
2023-05-23T08:37:38.870Z,11.00
2023-05-23T08:40:15.951Z,18.93
2023-05-23T08:42:46.499Z,13.37
2023-05-23T08:45:16.169Z,10.70
2023-05-23T08:47:46.367Z,15.40
2023-05-23T08:50:18.585Z,12.10
2023-05-23T08:52:56.171Z,10.00
2023-05-23T08:55:27.907Z,11.50
2023-05-23T08:58:00.732Z,9.60
2023-05-23T09:00:30.725Z,9.30
2023-05-23T09:02:59.916Z,11.40
2023-05-23T09:05:29.085Z,10.27
2023-05-23T09:07:58.527Z,8.83
2023-05-23T09:10:30.155Z,11.27
2023-05-23T09:13:00.617Z,7.93
2023-05-23T09:15:29.400Z,10.07
2023-05-23T09:18:04.040Z,6.20
2023-05-23T09:20:33.205Z,7.37
2023-05-23T09:23:03.675Z,8.67
2023-05-23T09:25:33.071Z,14.13
2023-05-23T09:28:04.771Z,10.90
2023-05-23T09:30:37.032Z,7.77
2023-05-23T09:33:06.340Z,7.10
2023-05-23T09:35:35.136Z,9.60
2023-05-23T09:38:04.248Z,6.40
2023-05-23T09:40:34.550Z,8.10
2023-05-23T09:43:08.357Z,5.60
2023-05-23T09:45:37.157Z,6.17
2023-05-23T09:48:06.546Z,6.93
2023-05-23T09:50:35.433Z,6.20
2023-05-23T09:53:04.684Z,5.20
2023-05-23T09:55:34.504Z,5.60
2023-05-23T09:58:06.070Z,7.20
2023-05-23T10:00:36.867Z,5.67
2023-05-23T10:03:13.999Z,9.70
2023-05-23T10:05:48.420Z,8.60
2023-05-23T10:08:20.600Z,9.27
2023-05-23T10:11:36.662Z,6.47
2023-05-23T10:14:08.784Z,5.40
2023-05-23T10:16:49.999Z,8.60
2023-05-23T10:19:26.183Z,7.20
2023-05-23T10:22:01.101Z,6.00
2023-05-23T10:24:30.061Z,9.87
2023-05-23T10:27:00.015Z,6.77
2023-05-23T10:29:31.134Z,7.17
2023-05-23T10:32:03.011Z,6.93
2023-05-23T10:34:39.393Z,6.80
2023-05-23T10:37:09.361Z,5.20
2023-05-23T10:39:58.318Z,9.90
2023-05-23T10:42:37.273Z,4.60
2023-05-23T10:45:23.193Z,4.47
2023-05-23T10:47:54.574Z,6.00
2023-05-23T10:50:37.971Z,4.70
2023-05-23T10:53:08.467Z,5.90
2023-05-23T10:55:38.812Z,6.77
2023-05-23T10:58:17.529Z,7.00
2023-05-23T11:01:04.753Z,4.27
2023-05-23T11:03:39.640Z,8.10
2023-05-23T11:06:09.417Z,7.10
2023-05-23T11:08:48.824Z,5.27
2023-05-23T11:11:18.552Z,4.17
2023-05-23T11:14:02.911Z,3.53
2023-05-23T11:16:34.390Z,3.63
2023-05-23T11:19:28.638Z,8.10
2023-05-23T11:22:00.756Z,6.60
2023-05-23T11:24:51.711Z,7.13
2023-05-23T11:27:27.653Z,3.57
2023-05-23T11:30:04.263Z,4.90
2023-05-23T11:32:34.823Z,3.30
2023-05-23T11:35:06.104Z,3.00
2023-05-23T11:37:36.009Z,5.40
2023-05-23T11:40:28.941Z,3.30
2023-05-23T11:42:58.350Z,4.00
2023-05-23T11:45:27.293Z,5.63
2023-05-23T11:47:56.156Z,3.10
2023-05-23T11:50:28.534Z,3.10
2023-05-23T11:52:57.227Z,2.63
2023-05-23T11:55:25.950Z,5.90
2023-05-23T11:57:59.096Z,7.47
2023-05-23T12:00:27.509Z,5.30
2023-05-23T12:02:55.885Z,3.40
2023-05-23T12:05:26.400Z,3.13
2023-05-23T12:07:54.693Z,4.33
2023-05-23T12:10:30.032Z,7.00
2023-05-23T12:12:59.049Z,3.00
2023-05-23T12:15:28.582Z,3.60
2023-05-23T12:17:57.804Z,6.17
2023-05-23T12:20:27.844Z,2.57
2023-05-23T12:22:58.176Z,2.70
2023-05-23T12:25:26.671Z,6.17
2023-05-23T12:27:56.438Z,2.40
2023-05-23T12:30:25.278Z,2.40
2023-05-23T12:32:54.070Z,2.80
2023-05-23T12:35:22.708Z,2.87
2023-05-23T12:37:55.496Z,3.63
2023-05-23T12:40:24.291Z,3.13
2023-05-23T12:42:53.949Z,3.80
2023-05-23T12:45:27.088Z,2.30
2023-05-23T12:47:55.610Z,2.40
2023-05-23T12:50:24.030Z,3.43
2023-05-23T12:52:54.483Z,2.43
2023-05-23T12:55:23.204Z,4.10
2023-05-23T12:57:52.177Z,4.30
2023-05-23T13:00:22.432Z,4.03
2023-05-23T13:02:51.603Z,6.77
2023-05-23T13:05:21.186Z,5.23
2023-05-23T13:07:50.226Z,2.90
2023-05-23T13:10:20.812Z,3.47
2023-05-23T13:12:49.358Z,3.07
2023-05-23T13:15:18.422Z,3.30
2023-05-23T13:17:50.134Z,3.77
2023-05-23T13:20:19.570Z,7.43
2023-05-23T13:22:48.356Z,5.83
2023-05-23T13:25:17.145Z,8.03
2023-05-23T13:27:49.259Z,3.63
2023-05-23T13:30:18.264Z,6.63
2023-05-23T13:32:46.867Z,3.60
2023-05-23T13:35:17.167Z,5.00
2023-05-23T13:37:45.730Z,5.03
2023-05-23T13:40:18.777Z,5.90
2023-05-23T13:42:50.884Z,4.00
2023-05-23T13:45:20.598Z,4.00
2023-05-23T13:47:50.367Z,4.87
2023-05-23T13:50:19.351Z,3.10
2023-05-23T13:52:49.433Z,3.57
2023-05-23T13:55:18.876Z,3.63
2023-05-23T13:57:49.755Z,6.57
2023-05-23T14:00:18.796Z,5.80
2023-05-23T14:02:47.739Z,6.13
2023-05-23T14:05:17.265Z,4.37
2023-05-23T14:07:47.576Z,3.97
2023-05-23T14:10:17.754Z,5.07
2023-05-23T14:12:46.119Z,4.37
2023-05-23T14:15:16.073Z,4.87
2023-05-23T14:17:44.800Z,4.47
2023-05-23T14:20:14.075Z,3.87
2023-05-23T14:22:42.755Z,5.33
2023-05-23T14:25:12.142Z,5.27
2023-05-23T14:27:40.747Z,3.77
2023-05-23T14:30:11.169Z,5.23
2023-05-23T14:32:42.149Z,5.10
2023-05-23T14:35:12.533Z,6.33
2023-05-23T14:37:41.258Z,4.43
2023-05-23T14:40:11.859Z,4.40
2023-05-23T14:42:40.123Z,6.00
2023-05-23T14:45:09.042Z,5.20
2023-05-23T14:47:38.420Z,10.30
2023-05-23T14:50:09.724Z,3.40
2023-05-23T14:52:38.661Z,9.10
2023-05-23T14:55:08.067Z,3.67
2023-05-23T14:57:36.834Z,3.33
2023-05-23T15:00:06.042Z,5.40
2023-05-23T15:02:34.800Z,3.47
2023-05-23T15:05:03.939Z,4.20
2023-05-23T15:07:33.712Z,3.47
2023-05-23T15:10:02.017Z,2.70
2023-05-23T15:12:30.908Z,3.73
2023-05-23T15:15:03.912Z,2.90
2023-05-23T15:17:33.564Z,5.00
2023-05-23T15:20:04.469Z,3.40
2023-05-23T15:22:39.692Z,3.10
2023-05-23T15:25:09.732Z,4.83
2023-05-23T15:27:38.865Z,2.67
2023-05-23T15:30:08.625Z,4.30
2023-05-23T15:32:37.015Z,4.17
2023-05-23T15:35:06.659Z,4.00
2023-05-23T15:37:36.494Z,4.97
2023-05-23T15:40:05.147Z,4.73
2023-05-23T15:42:34.080Z,2.77
2023-05-23T15:45:02.502Z,4.63
2023-05-23T15:47:30.632Z,2.63
2023-05-23T15:49:59.204Z,5.10
2023-05-23T15:52:27.740Z,11.43
2023-05-23T15:54:58.291Z,6.40
2023-05-23T15:57:27.060Z,4.10
2023-05-23T15:59:55.402Z,2.63
2023-05-23T16:02:24.070Z,5.70
2023-05-23T16:04:53.089Z,5.57
2023-05-23T16:07:21.580Z,10.93
2023-05-23T16:09:49.774Z,3.67
2023-05-23T16:12:19.968Z,3.30
2023-05-23T16:14:48.745Z,9.67
2023-05-23T16:17:17.065Z,4.00
2023-05-23T16:19:45.876Z,2.93
2023-05-23T16:22:14.099Z,4.70
2023-05-23T16:24:42.362Z,5.17
2023-05-23T16:27:11.024Z,2.43
2023-05-23T16:29:40.886Z,3.87
2023-05-23T16:32:09.634Z,3.10
2023-05-23T16:34:38.494Z,3.10
2023-05-23T16:37:07.268Z,3.73
2023-05-23T16:39:35.669Z,2.50
2023-05-23T16:42:04.580Z,3.03
2023-05-23T16:44:33.129Z,3.83
2023-05-23T16:47:02.695Z,2.40
2023-05-23T16:49:31.742Z,3.10
2023-05-23T16:52:00.374Z,3.20
2023-05-23T16:54:28.924Z,3.90
2023-05-23T16:56:58.313Z,3.47
2023-05-23T16:59:26.828Z,3.57
2023-05-23T17:01:56.010Z,4.33
2023-05-23T17:04:26.875Z,7.80
2023-05-23T17:06:55.460Z,9.40
2023-05-23T17:09:24.635Z,6.70
2023-05-23T17:11:54.053Z,5.03
2023-05-23T17:14:22.430Z,5.40
2023-05-23T17:16:51.391Z,3.80
2023-05-23T17:19:20.845Z,4.67
2023-05-23T17:21:50.958Z,3.60
2023-05-23T17:24:19.390Z,3.67
2023-05-23T17:26:48.439Z,4.50
2023-05-23T17:29:17.479Z,3.90
2023-05-23T17:31:45.834Z,3.70
2023-05-23T17:34:17.806Z,3.60
2023-05-23T17:36:46.297Z,3.77
2023-05-23T17:39:16.515Z,3.57
2023-05-23T17:41:45.359Z,8.60
2023-05-23T17:44:13.891Z,3.07
2023-05-23T17:46:42.251Z,3.20
2023-05-23T17:49:11.154Z,4.00
2023-05-23T17:51:39.618Z,3.80
2023-05-23T17:54:08.136Z,3.83
2023-05-23T17:56:38.880Z,4.47
2023-05-23T17:59:07.519Z,3.87
2023-05-23T18:01:36.955Z,2.80
2023-05-23T18:04:05.893Z,2.83
2023-05-23T18:06:34.136Z,2.70
2023-05-23T18:09:03.126Z,3.40
2023-05-23T18:11:31.575Z,3.43
2023-05-23T18:14:01.629Z,2.90
2023-05-23T18:16:30.487Z,4.10
2023-05-23T18:18:59.853Z,3.37
2023-05-23T18:21:29.000Z,4.50
2023-05-23T18:23:58.260Z,3.60
2023-05-23T18:26:27.387Z,3.97
2023-05-23T18:28:56.443Z,3.00
2023-05-23T18:31:27.763Z,5.63
2023-05-23T18:33:56.916Z,3.17
2023-05-23T18:36:25.407Z,2.33
2023-05-23T18:38:54.545Z,1.60
2023-05-23T18:41:24.355Z,1.97
2023-05-23T18:43:53.749Z,2.03
2023-05-23T18:46:24.937Z,2.60
2023-05-23T18:48:56.094Z,2.20
2023-05-23T18:51:25.497Z,9.70
2023-05-23T18:53:54.082Z,1.80
2023-05-23T18:56:23.507Z,2.57
2023-05-23T18:58:52.660Z,2.17
2023-05-23T19:01:22.134Z,1.70
2023-05-23T19:03:51.126Z,1.63
2023-05-23T19:06:21.859Z,5.67
2023-05-23T19:08:51.171Z,2.73
2023-05-23T19:11:19.719Z,3.27
2023-05-23T19:13:48.838Z,2.53
2023-05-23T19:16:17.811Z,2.10
2023-05-23T19:18:47.767Z,2.07
2023-05-23T19:21:17.510Z,3.17
2023-05-23T19:23:47.815Z,2.17
2023-05-23T19:26:18.315Z,4.60
2023-05-23T19:28:47.730Z,4.80
2023-05-23T19:31:16.501Z,2.17
2023-05-23T19:33:45.089Z,2.60
2023-05-23T19:36:14.358Z,2.10
2023-05-23T19:38:42.749Z,3.63
2023-05-23T19:41:12.763Z,4.03
2023-05-23T19:43:41.791Z,6.30
2023-05-23T19:46:10.929Z,4.47
2023-05-23T19:48:39.982Z,6.60
2023-05-23T19:51:08.398Z,3.90
2023-05-23T19:53:36.813Z,4.70
2023-05-23T19:56:05.903Z,2.97
2023-05-23T19:58:36.504Z,2.30
2023-05-23T20:01:07.410Z,2.67
2023-05-23T20:03:36.696Z,3.50
2023-05-23T20:06:05.428Z,2.80
2023-05-23T20:08:34.699Z,2.17
2023-05-23T20:11:03.164Z,3.77
2023-05-23T20:13:32.153Z,7.73
2023-05-23T20:16:02.997Z,5.10
2023-05-23T20:18:32.321Z,4.13
2023-05-23T20:21:03.528Z,6.47
2023-05-23T20:23:34.389Z,6.87
2023-05-23T20:26:02.949Z,7.30
2023-05-23T20:28:31.108Z,7.93
2023-05-23T20:31:00.011Z,11.50
2023-05-23T20:33:30.294Z,12.10
2023-05-23T20:36:00.039Z,11.10
2023-05-23T20:38:29.131Z,14.67
2023-05-23T20:40:57.789Z,15.93
2023-05-23T20:43:26.865Z,11.30
2023-05-23T20:45:57.471Z,14.20
2023-05-23T20:48:26.672Z,12.70
2023-05-23T20:50:57.899Z,10.53
2023-05-23T20:53:26.871Z,14.63
2023-05-23T20:55:55.484Z,21.07
2023-05-23T20:58:24.230Z,9.90
2023-05-23T21:00:53.293Z,15.93
2023-05-23T21:03:22.126Z,19.27
2023-05-23T21:05:50.520Z,14.13
2023-05-23T21:08:21.701Z,15.47
2023-05-23T21:10:53.313Z,10.60
2023-05-23T21:13:23.215Z,12.53
2023-05-23T21:15:51.994Z,12.17
2023-05-23T21:18:20.258Z,11.17
2023-05-23T21:20:49.108Z,20.13
2023-05-23T21:23:17.379Z,8.40
2023-05-23T21:25:47.322Z,11.30
2023-05-23T21:28:16.177Z,9.90
2023-05-23T21:30:44.857Z,10.77
2023-05-23T21:33:13.732Z,10.63
2023-05-23T21:35:42.455Z,10.10
2023-05-23T21:38:11.269Z,10.33
2023-05-23T21:40:40.338Z,8.53
2023-05-23T21:43:10.216Z,17.80
2023-05-23T21:45:38.643Z,16.10
2023-05-23T21:48:07.751Z,9.60
2023-05-23T21:50:36.697Z,11.47
2023-05-23T21:53:04.976Z,14.13
2023-05-23T21:55:33.863Z,7.20
2023-05-23T21:58:02.190Z,9.47
2023-05-23T22:00:32.363Z,12.30
2023-05-23T22:03:00.743Z,13.10
2023-05-23T22:05:29.051Z,12.80
2023-05-23T22:07:57.953Z,8.43
2023-05-23T22:10:26.408Z,9.50
2023-05-23T22:12:54.763Z,17.57
2023-05-23T22:15:23.856Z,17.10
2023-05-23T22:17:53.748Z,13.93
2023-05-23T22:20:23.841Z,6.30
2023-05-23T22:22:52.544Z,12.23
2023-05-23T22:25:22.004Z,12.70
2023-05-23T22:27:50.991Z,17.33
2023-05-23T22:30:19.487Z,20.73
2023-05-23T22:32:48.417Z,9.10
2023-05-23T22:35:18.445Z,12.77
2023-05-23T22:37:47.192Z,14.07
2023-05-23T22:40:15.782Z,12.13
2023-05-23T22:42:44.184Z,18.77
2023-05-23T22:45:12.820Z,11.20
2023-05-23T22:47:42.268Z,11.53
2023-05-23T22:50:11.554Z,11.83
2023-05-23T22:52:41.150Z,15.90
2023-05-23T22:55:10.799Z,7.90
2023-05-23T22:57:39.095Z,11.27
2023-05-23T23:00:09.049Z,9.37
2023-05-23T23:02:37.971Z,12.60
2023-05-23T23:05:06.661Z,16.63
2023-05-23T23:07:34.996Z,11.63
2023-05-23T23:10:05.829Z,12.23
2023-05-23T23:12:34.574Z,14.60
2023-05-23T23:15:04.587Z,15.63
2023-05-23T23:17:33.973Z,11.63
2023-05-23T23:20:02.477Z,9.20
2023-05-23T23:22:31.604Z,11.80
2023-05-23T23:25:03.884Z,16.87
2023-05-23T23:27:34.275Z,18.97
2023-05-23T23:30:04.186Z,10.33
2023-05-23T23:32:34.320Z,10.67
2023-05-23T23:35:03.313Z,7.60
2023-05-23T23:37:33.036Z,10.00
2023-05-23T23:40:01.732Z,14.70
2023-05-23T23:42:31.188Z,11.93
2023-05-23T23:45:02.077Z,11.07
2023-05-23T23:47:31.880Z,10.87
2023-05-23T23:50:00.246Z,8.83
2023-05-23T23:52:30.616Z,18.67
2023-05-23T23:54:59.162Z,12.60
2023-05-23T23:57:27.684Z,10.23
2023-05-23T23:59:57.187Z,15.70
